Time;durP1;ratioP1;P1;durP2;ratioP2;P2;SDS_P1;SDS_P2;PMS_P1;PMS_P2;Temp;Humidity;BMP_temperature;BMP_pressure;BME280_temperature;BME280_humidity;BME280_pressure;Samples;Min_cycle;Max_cycle;Signal;HPM_P1;HPM_P2
2022/10/25 00:01:34;;;;;;;45.33;6.40;;;12.80;99.90;;;;;;5054167;28;20035;-73
2022/10/25 00:04:00;;;;;;;40.47;6.32;;;12.90;99.90;;;;;;5053717;28;20064;-73
2022/10/25 00:06:25;;;;;;;47.38;6.47;;;12.80;99.90;;;;;;5053703;28;20044;-74
2022/10/25 00:08:51;;;;;;;34.92;7.07;;;12.80;99.90;;;;;;5053471;28;20028;-73
2022/10/25 00:11:20;;;;;;;32.45;6.90;;;12.80;99.90;;;;;;5053825;28;20032;-73
2022/10/25 00:13:48;;;;;;;46.10;6.75;;;12.90;99.90;;;;;;5053379;28;20048;-73
2022/10/25 00:16:15;;;;;;;41.05;6.72;;;12.90;99.90;;;;;;5053458;28;20017;-73
2022/10/25 00:18:41;;;;;;;33.55;6.95;;;12.90;99.90;;;;;;5053504;28;20079;-73
2022/10/25 00:21:07;;;;;;;48.63;7.07;;;12.90;99.90;;;;;;5053224;28;20028;-73
2022/10/25 00:23:32;;;;;;;32.85;5.85;;;12.90;99.90;;;;;;5053627;28;20028;-73
2022/10/25 00:26:02;;;;;;;44.47;6.82;;;12.90;99.90;;;;;;5053367;28;20176;-73
2022/10/25 00:28:28;;;;;;;39.58;6.15;;;12.90;99.90;;;;;;5053405;28;20546;-73
2022/10/25 00:31:01;;;;;;;39.50;7.30;;;13.00;99.90;;;;;;5053489;28;20029;-73
2022/10/25 00:33:34;;;;;;;47.35;6.72;;;13.00;99.90;;;;;;5053649;28;20025;-73
2022/10/25 00:36:04;;;;;;;50.25;7.10;;;12.90;99.90;;;;;;5053288;28;20037;-73
2022/10/25 00:38:29;;;;;;;47.70;6.97;;;12.90;99.90;;;;;;5057051;28;20059;-73
2022/10/25 00:40:55;;;;;;;39.97;6.45;;;12.90;99.90;;;;;;5053665;28;20052;-73
2022/10/25 00:43:34;;;;;;;47.05;7.95;;;12.90;99.90;;;;;;5053387;28;20388;-73
2022/10/25 00:46:05;;;;;;;42.60;7.55;;;12.90;99.90;;;;;;5053823;28;20079;-73
2022/10/25 00:48:31;;;;;;;54.38;7.43;;;12.90;99.90;;;;;;5053585;28;20049;-73
2022/10/25 00:50:57;;;;;;;47.08;8.63;;;13.00;99.90;;;;;;5053223;28;20052;-74
2022/10/25 00:53:27;;;;;;;58.22;8.80;;;13.00;99.90;;;;;;5053419;28;20515;-73
2022/10/25 00:56:02;;;;;;;44.67;8.57;;;13.00;99.90;;;;;;5067613;28;20029;-73
2022/10/25 00:58:31;;;;;;;48.13;9.13;;;13.00;99.90;;;;;;5073276;28;20040;-73
2022/10/25 01:00:57;;;;;;;40.72;7.20;;;13.00;99.90;;;;;;5063259;28;20028;-73
2022/10/25 01:03:23;;;;;;;43.70;7.40;;;13.00;99.90;;;;;;5055502;28;20021;-73
2022/10/25 01:05:49;;;;;;;37.17;7.68;;;13.00;99.90;;;;;;5056579;28;20052;-73
2022/10/25 01:08:17;;;;;;;43.05;7.80;;;13.10;99.90;;;;;;5055293;28;20496;-73
2022/10/25 01:10:43;;;;;;;43.45;7.85;;;13.10;99.90;;;;;;5073300;28;20383;-73
2022/10/25 01:13:08;;;;;;;40.97;7.72;;;13.10;99.90;;;;;;5076588;28;20036;-73
2022/10/25 01:15:55;;;;;;;36.70;7.03;;;13.10;99.90;;;;;;5060243;28;20040;-73
2022/10/25 01:19:05;;;;;;;50.80;8.80;;;13.10;99.90;;;;;;5062704;28;20082;-73
2022/10/25 01:21:56;;;;;;;61.13;7.28;;;13.20;99.90;;;;;;5065515;28;20550;-73
2022/10/25 01:24:36;;;;;;;51.88;10.35;;;13.20;99.90;;;;;;5038537;28;20075;-72
2022/10/25 01:27:29;;;;;;;53.60;8.02;;;13.20;99.90;;;;;;5058752;28;20040;-73
2022/10/25 01:30:05;;;;;;;64.63;7.47;;;13.20;99.90;;;;;;5056544;28;20079;-73
2022/10/25 01:32:42;;;;;;;62.40;8.68;;;13.20;99.90;;;;;;5061125;28;20476;-73
2022/10/25 01:35:16;;;;;;;41.45;6.35;;;13.30;99.90;;;;;;5067138;28;20017;-73
2022/10/25 01:37:59;;;;;;;46.15;6.97;;;13.30;99.90;;;;;;5055958;28;20094;-73
2022/10/25 01:40:40;;;;;;;57.47;7.57;;;13.30;99.90;;;;;;5058335;28;20104;-73
2022/10/25 01:43:26;;;;;;;59.65;6.85;;;13.30;99.90;;;;;;5055719;28;20018;-73
2022/10/25 01:46:14;;;;;;;47.53;6.43;;;13.40;99.90;;;;;;5056166;28;20056;-73
2022/10/25 01:48:46;;;;;;;53.33;7.22;;;13.40;99.90;;;;;;5055837;28;20032;-73
2022/10/25 01:51:15;;;;;;;56.63;8.00;;;13.40;99.90;;;;;;5058281;28;20021;-73
2022/10/25 01:53:48;;;;;;;60.72;8.70;;;13.40;99.90;;;;;;5056033;28;20025;-73
2022/10/25 01:56:23;;;;;;;64.07;7.50;;;13.40;99.90;;;;;;5067794;28;20074;-73
2022/10/25 01:58:55;;;;;;;66.60;8.02;;;13.40;99.90;;;;;;5075312;28;20042;-72
2022/10/25 02:01:33;;;;;;;63.67;7.95;;;13.40;99.90;;;;;;5075691;28;20099;-72
2022/10/25 02:04:04;;;;;;;58.88;6.95;;;13.40;99.90;;;;;;5075748;28;20024;-72
2022/10/25 02:06:52;;;;;;;55.25;7.68;;;13.40;99.90;;;;;;5055474;28;20052;-73
2022/10/25 02:09:22;;;;;;;50.97;7.20;;;13.40;99.90;;;;;;5054132;28;20021;-73
2022/10/25 02:11:50;;;;;;;44.92;6.43;;;13.30;99.90;;;;;;5055974;28;20029;-72
2022/10/25 02:14:26;;;;;;;56.28;7.18;;;13.30;99.90;;;;;;5053728;28;20067;-72
2022/10/25 02:17:20;;;;;;;50.67;7.25;;;13.30;99.90;;;;;;5065464;28;20487;-73
2022/10/25 02:19:51;;;;;;;64.35;9.73;;;13.30;99.90;;;;;;5073177;28;20522;-73
2022/10/25 02:22:22;;;;;;;71.63;8.50;;;13.30;99.90;;;;;;5074427;28;20024;-72
2022/10/25 02:24:49;;;;;;;57.65;7.47;;;13.30;99.90;;;;;;5075319;28;20024;-72
2022/10/25 02:27:19;;;;;;;74.32;8.35;;;13.30;99.90;;;;;;5072002;28;20016;-72
2022/10/25 02:29:46;;;;;;;47.80;6.22;;;13.20;99.90;;;;;;5075066;28;20067;-73
2022/10/25 02:32:12;;;;;;;58.30;7.15;;;13.20;99.90;;;;;;5074535;28;20042;-72
2022/10/25 02:34:38;;;;;;;63.75;8.82;;;13.20;99.90;;;;;;5055187;28;20017;-73
2022/10/25 02:37:04;;;;;;;55.88;7.78;;;13.20;99.90;;;;;;5054732;28;20028;-73
2022/10/25 02:39:29;;;;;;;47.58;8.55;;;13.20;99.90;;;;;;5067737;28;20021;-73
2022/10/25 02:41:55;;;;;;;70.65;8.43;;;13.20;99.90;;;;;;5074704;28;20021;-73
2022/10/25 02:44:20;;;;;;;50.88;6.70;;;13.10;99.90;;;;;;5075174;28;20356;-73
2022/10/25 02:46:46;;;;;;;47.22;6.78;;;13.20;99.90;;;;;;5074752;28;20056;-72
2022/10/25 02:49:11;;;;;;;54.95;6.88;;;13.10;99.90;;;;;;5072168;28;20150;-72
2022/10/25 02:51:37;;;;;;;39.60;7.40;;;13.10;99.90;;;;;;5074863;28;20107;-72
2022/10/25 02:54:03;;;;;;;44.05;7.25;;;13.10;99.90;;;;;;5069733;28;20035;-72
2022/10/25 02:56:28;;;;;;;33.78;6.13;;;13.10;99.90;;;;;;5074353;28;20033;-72
2022/10/25 02:58:56;;;;;;;51.85;7.35;;;13.10;99.90;;;;;;5069034;28;20179;-72
2022/10/25 03:01:22;;;;;;;43.60;6.82;;;13.10;99.90;;;;;;5054533;28;20025;-72
2022/10/25 03:03:48;;;;;;;57.38;7.45;;;13.10;99.90;;;;;;5054452;28;20029;-72
2022/10/25 03:06:14;;;;;;;43.90;5.95;;;13.10;99.90;;;;;;5054539;28;20029;-73
2022/10/25 03:08:41;;;;;;;49.10;6.40;;;13.10;99.90;;;;;;5054202;28;20028;-72
2022/10/25 03:11:08;;;;;;;42.42;4.85;;;12.90;99.90;;;;;;5054158;28;20104;-72
2022/10/25 03:13:34;;;;;;;26.38;4.32;;;12.80;99.90;;;;;;5054427;28;20029;-72
2022/10/25 03:16:00;;;;;;;20.45;3.17;;;12.70;99.90;;;;;;5056168;28;20025;-72
2022/10/25 03:18:26;;;;;;;32.33;4.60;;;12.60;99.90;;;;;;5053998;28;20098;-73
2022/10/25 03:20:54;;;;;;;19.85;2.97;;;12.40;99.90;;;;;;5056459;28;20078;-72
2022/10/25 03:23:20;;;;;;;26.58;3.70;;;12.40;99.90;;;;;;5035565;28;20021;-72
2022/10/25 03:25:45;;;;;;;41.30;4.78;;;12.40;99.90;;;;;;5053595;28;20534;-72
2022/10/25 03:28:11;;;;;;;25.98;4.70;;;12.30;99.90;;;;;;5056737;28;20029;-73
2022/10/25 03:30:37;;;;;;;27.70;3.95;;;12.40;99.90;;;;;;5053981;28;20029;-73
2022/10/25 03:33:02;;;;;;;38.47;5.40;;;12.40;99.90;;;;;;5061201;28;20024;-73
2022/10/25 03:35:28;;;;;;;35.97;6.32;;;12.40;99.90;;;;;;5074131;28;20106;-73
2022/10/25 03:37:53;;;;;;;41.03;6.22;;;12.50;99.90;;;;;;5073633;28;20078;-72
2022/10/25 03:40:20;;;;;;;33.92;5.47;;;12.50;99.90;;;;;;5074088;28;20020;-73
2022/10/25 03:42:45;;;;;;;37.72;4.72;;;12.50;99.90;;;;;;5074066;28;20495;-72
2022/10/25 03:45:11;;;;;;;45.78;7.57;;;12.60;99.90;;;;;;5058135;28;20058;-72
2022/10/25 03:47:38;;;;;;;36.88;5.03;;;12.60;99.90;;;;;;5054040;28;20104;-72
2022/10/25 03:50:05;;;;;;;42.45;5.38;;;12.50;99.90;;;;;;5057100;28;20473;-72
2022/10/25 03:52:30;;;;;;;43.58;6.10;;;12.50;99.90;;;;;;5053624;28;20037;-72
2022/10/25 03:54:56;;;;;;;36.40;4.68;;;12.50;99.90;;;;;;5053617;28;20036;-72
2022/10/25 03:57:21;;;;;;;28.58;3.42;;;12.50;99.90;;;;;;5052195;28;20395;-72
2022/10/25 03:59:47;;;;;;;38.85;4.93;;;12.50;99.90;;;;;;5076447;23;20056;-66
2022/10/25 04:02:14;;;;;;;43.60;5.32;;;12.50;99.90;;;;;;5052932;28;20100;-66
2022/10/25 04:04:39;;;;;;;28.10;3.53;;;12.40;99.90;;;;;;5064695;28;20033;-66
2022/10/25 04:07:05;;;;;;;23.25;3.33;;;12.40;99.90;;;;;;5073216;28;20068;-66
2022/10/25 04:09:31;;;;;;;34.97;3.35;;;12.40;99.90;;;;;;5068150;28;20369;-66
2022/10/25 04:11:56;;;;;;;31.63;3.30;;;12.40;99.90;;;;;;5053109;28;20048;-66
2022/10/25 04:14:22;;;;;;;29.63;3.20;;;12.40;99.90;;;;;;5053229;28;20104;-65
2022/10/25 04:16:48;;;;;;;25.13;2.72;;;12.30;99.90;;;;;;5054795;28;20128;-66
2022/10/25 04:19:13;;;;;;;28.35;3.17;;;12.30;99.90;;;;;;5052845;28;20025;-66
2022/10/25 04:21:39;;;;;;;22.35;3.53;;;12.30;99.90;;;;;;5055076;28;20025;-66
2022/10/25 04:24:05;;;;;;;19.80;2.58;;;12.20;99.90;;;;;;5052740;28;20025;-66
2022/10/25 04:26:30;;;;;;;21.25;2.45;;;12.20;99.90;;;;;;5060837;28;20412;-66
2022/10/25 04:28:56;;;;;;;20.48;2.33;;;12.20;99.90;;;;;;5072654;28;20029;-67
2022/10/25 04:31:23;;;;;;;24.40;2.97;;;12.20;99.90;;;;;;5067786;28;20032;-66
2022/10/25 04:33:52;;;;;;;18.02;2.97;;;12.10;99.90;;;;;;5052678;28;20033;-66
2022/10/25 04:36:19;;;;;;;24.15;3.45;;;12.10;99.90;;;;;;5057060;28;20036;-66
2022/10/25 04:38:52;;;;;;;38.42;4.07;;;12.20;99.90;;;;;;5076497;28;20468;-66
2022/10/25 04:41:19;;;;;;;24.73;3.92;;;12.20;99.90;;;;;;5076387;28;20497;-66
2022/10/25 04:43:45;;;;;;;37.55;5.88;;;12.30;99.90;;;;;;5074273;28;20033;-66
2022/10/25 04:46:11;;;;;;;49.05;7.40;;;12.50;99.90;;;;;;5076772;28;20062;-66
2022/10/25 04:48:38;;;;;;;36.35;6.63;;;12.70;99.90;;;;;;5066447;28;20370;-66
2022/10/25 04:51:04;;;;;;;45.17;7.15;;;12.80;99.90;;;;;;5057806;28;20033;-66
2022/10/25 04:53:29;;;;;;;47.63;7.45;;;12.80;99.90;;;;;;5076443;28;20116;-66
2022/10/25 04:56:00;;;;;;;58.13;8.25;;;12.90;99.90;;;;;;5076029;28;20417;-66
2022/10/25 04:58:26;;;;;;;61.55;7.75;;;12.90;99.90;;;;;;5075988;28;20036;-66
2022/10/25 05:00:53;;;;;;;61.70;8.25;;;12.90;99.90;;;;;;5066808;28;20070;-66
2022/10/25 05:03:19;;;;;;;69.22;9.55;;;12.90;99.90;;;;;;5056232;28;20545;-66
2022/10/25 05:05:45;;;;;;;68.38;10.25;;;13.00;99.90;;;;;;5055932;28;20074;-66
2022/10/25 05:08:10;;;;;;;79.28;12.65;;;13.10;99.90;;;;;;5056043;28;20025;-66
2022/10/25 05:10:36;;;;;;;78.05;12.32;;;13.20;99.90;;;;;;5061219;28;20068;-66
2022/10/25 05:13:01;;;;;;;86.55;13.38;;;13.20;99.90;;;;;;5075798;28;20036;-67
2022/10/25 05:15:27;;;;;;;60.97;11.18;;;13.30;99.90;;;;;;5073770;28;20022;-66
2022/10/25 05:17:57;;;;;;;64.65;11.50;;;13.30;99.90;;;;;;5056538;28;20029;-66
2022/10/25 05:20:22;;;;;;;78.10;12.90;;;13.30;99.90;;;;;;5055905;28;20021;-67
2022/10/25 05:22:48;;;;;;;54.13;9.82;;;13.20;99.90;;;;;;5070198;28;20479;-68
2022/10/25 05:25:13;;;;;;;29.02;5.32;;;13.20;99.90;;;;;;5075828;28;20028;-68
2022/10/25 05:27:39;;;;;;;24.08;3.42;;;13.10;99.90;;;;;;5066529;28;20459;-67
2022/10/25 05:30:05;;;;;;;32.92;3.45;;;12.80;99.90;;;;;;5055684;28;20033;-67
2022/10/25 05:32:31;;;;;;;22.25;3.67;;;12.70;99.90;;;;;;5057918;28;20047;-68
2022/10/25 05:34:56;;;;;;;25.23;3.60;;;12.40;99.90;;;;;;5067886;28;20028;-67
2022/10/25 05:37:22;;;;;;;23.73;4.00;;;12.40;99.90;;;;;;5075482;28;20510;-68
2022/10/25 05:39:47;;;;;;;23.98;4.53;;;12.40;99.90;;;;;;5071380;28;20021;-67
2022/10/25 05:42:13;;;;;;;10.80;2.53;;;12.40;99.90;;;;;;5060277;28;20029;-67
2022/10/25 05:44:38;;;;;;;24.80;3.63;;;12.40;99.90;;;;;;5070394;28;20021;-67
2022/10/25 05:47:04;;;;;;;38.22;7.47;;;12.40;99.90;;;;;;5057817;28;20388;-67
2022/10/25 05:49:29;;;;;;;42.90;8.20;;;12.40;99.90;;;;;;5055296;28;20491;-67
2022/10/25 05:51:55;;;;;;;45.60;9.80;;;12.50;99.90;;;;;;5055338;28;20025;-67
2022/10/25 05:54:22;;;;;;;31.88;7.75;;;12.70;99.90;;;;;;5055829;28;20044;-67
2022/10/25 05:56:47;;;;;;;61.17;10.80;;;12.80;99.90;;;;;;5055135;28;20037;-67
2022/10/25 05:59:14;;;;;;;65.85;10.15;;;12.90;99.90;;;;;;5054816;28;20404;-67
2022/10/25 06:01:42;;;;;;;79.38;10.55;;;13.00;99.90;;;;;;5053902;28;20441;-67
2022/10/25 06:04:09;;;;;;;79.38;10.90;;;13.10;99.90;;;;;;5055125;28;20079;-67
2022/10/25 06:06:36;;;;;;;75.05;12.05;;;13.10;99.90;;;;;;5054841;28;20100;-67
2022/10/25 06:09:02;;;;;;;68.25;10.93;;;13.20;99.90;;;;;;5054937;28;20029;-67
2022/10/25 06:11:28;;;;;;;76.35;11.75;;;13.20;99.90;;;;;;5054691;28;20033;-67
2022/10/25 06:13:54;;;;;;;73.35;11.38;;;13.20;99.90;;;;;;5054936;28;20025;-67
2022/10/25 06:16:20;;;;;;;68.13;11.23;;;13.20;99.90;;;;;;5055345;28;20108;-67
2022/10/25 06:18:46;;;;;;;83.10;11.95;;;13.10;99.90;;;;;;5055072;28;20021;-67
2022/10/25 06:21:20;;;;;;;82.47;11.60;;;13.10;99.90;;;;;;5054735;28;20021;-67
2022/10/25 06:23:47;;;;;;;95.22;11.25;;;13.20;99.90;;;;;;5054812;28;20025;-67
2022/10/25 06:26:18;;;;;;;75.30;12.27;;;13.10;99.90;;;;;;5054396;28;20080;-67
2022/10/25 06:28:44;;;;;;;79.40;11.45;;;13.10;99.90;;;;;;5054503;28;20064;-67
2022/10/25 06:31:15;;;;;;;63.58;10.25;;;13.10;99.90;;;;;;5054244;28;20056;-67
2022/10/25 06:33:41;;;;;;;86.43;12.90;;;13.20;99.90;;;;;;5054309;28;20056;-67
2022/10/25 06:36:15;;;;;;;76.97;14.57;;;13.10;99.90;;;;;;5054182;28;20396;-67
2022/10/25 06:38:40;;;;;;;75.45;13.30;;;13.20;99.90;;;;;;5054384;28;20029;-67
2022/10/25 06:41:11;;;;;;;84.80;11.38;;;13.20;99.90;;;;;;5054164;28;20527;-67
2022/10/25 06:43:37;;;;;;;79.97;14.23;;;13.20;99.90;;;;;;5054408;28;20021;-67
2022/10/25 06:46:13;;;;;;;82.38;12.70;;;13.20;99.90;;;;;;5054634;28;20021;-67
2022/10/25 06:48:39;;;;;;;76.80;11.32;;;13.20;99.90;;;;;;5053918;28;20029;-67
2022/10/25 06:51:08;;;;;;;73.93;9.82;;;13.10;99.90;;;;;;5053945;28;20024;-67
2022/10/25 06:53:34;;;;;;;75.43;10.80;;;13.10;99.90;;;;;;5054133;28;20033;-67
2022/10/25 06:56:05;;;;;;;75.38;11.27;;;13.10;99.90;;;;;;5054135;28;20031;-68
2022/10/25 06:58:32;;;;;;;70.97;11.85;;;13.10;99.90;;;;;;5052938;28;20037;-68
2022/10/25 07:01:02;;;;;;;71.03;11.52;;;13.10;99.90;;;;;;5054337;28;20017;-67
2022/10/25 07:03:33;;;;;;;69.13;11.45;;;13.10;99.90;;;;;;5053973;28;20021;-67
2022/10/25 07:06:09;;;;;;;78.75;12.27;;;13.10;99.90;;;;;;5054131;28;20021;-67
2022/10/25 07:08:37;;;;;;;80.97;12.38;;;13.20;99.90;;;;;;5053591;28;20078;-67
2022/10/25 07:11:03;;;;;;;61.75;11.18;;;13.20;99.90;;;;;;5053852;28;20032;-67
2022/10/25 07:13:30;;;;;;;85.88;11.57;;;13.30;99.90;;;;;;5053828;28;20082;-67
2022/10/25 07:16:07;;;;;;;68.35;10.80;;;13.20;99.90;;;;;;5053398;28;20090;-67
2022/10/25 07:18:34;;;;;;;79.53;12.93;;;13.20;99.90;;;;;;5070186;28;20028;-66
2022/10/25 07:21:09;;;;;;;80.93;11.75;;;13.30;99.90;;;;;;5073645;28;20021;-67
2022/10/25 07:23:40;;;;;;;83.40;12.82;;;13.40;99.90;;;;;;5071328;28;20024;-66
2022/10/25 07:26:06;;;;;;;62.83;9.98;;;13.40;99.90;;;;;;5073603;28;20032;-67
2022/10/25 07:28:32;;;;;;;71.03;11.63;;;13.40;99.90;;;;;;5073751;28;20125;-67
2022/10/25 07:30:58;;;;;;;85.00;11.23;;;13.50;99.90;;;;;;5073265;28;20032;-67
2022/10/25 07:33:23;;;;;;;79.05;11.80;;;13.50;99.90;;;;;;5070431;28;20028;-66
2022/10/25 07:35:49;;;;;;;76.97;11.88;;;13.50;99.90;;;;;;5073133;28;20487;-67
2022/10/25 07:38:15;;;;;;;78.60;11.38;;;13.40;99.90;;;;;;5071098;28;20028;-67
2022/10/25 07:40:42;;;;;;;56.90;9.57;;;13.50;99.90;;;;;;5069337;28;20395;-66
2022/10/25 07:43:08;;;;;;;60.45;10.55;;;13.50;99.90;;;;;;5073282;28;20016;-66
2022/10/25 07:45:36;;;;;;;63.33;10.50;;;13.50;99.90;;;;;;5073196;28;20029;-67
2022/10/25 07:48:02;;;;;;;75.15;11.05;;;13.60;99.90;;;;;;5069960;28;20025;-67
2022/10/25 07:50:27;;;;;;;65.07;11.75;;;13.50;99.90;;;;;;5053029;28;20029;-67
2022/10/25 07:52:56;;;;;;;58.05;10.65;;;13.60;99.90;;;;;;5053240;28;20025;-67
2022/10/25 07:55:22;;;;;;;86.30;10.20;;;13.70;99.90;;;;;;5053138;28;20028;-66
2022/10/25 07:57:47;;;;;;;62.83;9.75;;;13.70;99.90;;;;;;5052957;28;20032;-67
2022/10/25 08:00:13;;;;;;;52.47;8.48;;;13.70;99.90;;;;;;5052838;28;20115;-67
2022/10/25 08:02:39;;;;;;;65.63;9.00;;;13.70;99.90;;;;;;5053217;28;20361;-67
2022/10/25 08:05:05;;;;;;;59.63;9.90;;;13.60;99.90;;;;;;5053211;28;20503;-67
2022/10/25 08:07:30;;;;;;;51.80;8.68;;;13.60;99.90;;;;;;5052888;28;20033;-67
2022/10/25 08:09:56;;;;;;;69.60;10.68;;;13.70;99.90;;;;;;5055902;28;20392;-67
2022/10/25 08:12:21;;;;;;;57.13;9.75;;;13.70;99.90;;;;;;5056947;28;20026;-67
2022/10/25 08:14:47;;;;;;;51.05;8.55;;;13.70;99.90;;;;;;5056905;28;20032;-67
2022/10/25 08:17:12;;;;;;;73.57;10.77;;;13.70;99.90;;;;;;5048817;28;20503;-67
2022/10/25 08:19:38;;;;;;;58.22;9.23;;;13.70;99.90;;;;;;5056750;28;20439;-67
2022/10/25 08:22:03;;;;;;;69.57;8.65;;;13.80;99.90;;;;;;5060330;28;20024;-67
2022/10/25 08:24:29;;;;;;;61.85;8.27;;;13.80;99.90;;;;;;5076755;28;20495;-67
2022/10/25 08:26:54;;;;;;;63.47;9.77;;;13.70;99.90;;;;;;5075910;28;20361;-66
2022/10/25 08:29:20;;;;;;;71.63;9.40;;;13.70;99.90;;;;;;5058552;28;20033;-67
2022/10/25 08:31:45;;;;;;;63.63;8.73;;;13.70;99.90;;;;;;5057069;28;20033;-67
2022/10/25 08:34:11;;;;;;;62.70;8.52;;;13.60;99.90;;;;;;5061697;28;20036;-66
2022/10/25 08:36:36;;;;;;;66.65;9.05;;;13.70;99.90;;;;;;5076979;28;20021;-67
2022/10/25 08:39:02;;;;;;;54.92;7.47;;;13.70;99.90;;;;;;5074304;28;20021;-67
2022/10/25 08:41:50;;;;;;;49.47;7.18;;;13.80;99.90;;;;;;5067418;28;20476;-67
2022/10/25 08:44:27;;;;;;;62.38;10.13;;;13.90;99.90;;;;;;5076351;28;20025;-67
2022/10/25 08:47:03;;;;;;;74.50;9.68;;;14.00;99.90;;;;;;5068542;28;20108;-67
2022/10/25 08:49:47;;;;;;;55.22;7.38;;;14.00;99.90;;;;;;5076354;28;20495;-67
2022/10/25 08:52:42;;;;;;;63.95;7.93;;;14.00;99.90;;;;;;5076080;28;20032;-67
2022/10/25 08:55:18;;;;;;;70.60;8.13;;;13.90;99.90;;;;;;5076748;28;20384;-67
2022/10/25 08:57:46;;;;;;;68.82;8.15;;;14.00;99.90;;;;;;5075926;28;20035;-67
2022/10/25 09:00:19;;;;;;;73.95;8.93;;;14.00;99.90;;;;;;5076155;28;20028;-67
2022/10/25 09:02:53;;;;;;;71.53;8.60;;;14.00;99.90;;;;;;5076238;28;20027;-67
2022/10/25 09:05:51;;;;;;;59.47;7.70;;;14.10;99.90;;;;;;5076582;28;20035;-67
2022/10/25 09:08:48;;;;;;;67.65;7.03;;;14.20;99.90;;;;;;5075464;28;20112;-67
2022/10/25 09:11:20;;;;;;;63.35;8.80;;;14.30;99.90;;;;;;5076148;28;20024;-67
2022/10/25 09:13:58;;;;;;;60.97;8.18;;;14.30;99.90;;;;;;5075811;28;20067;-67
2022/10/25 09:16:35;;;;;;;56.50;6.63;;;14.30;99.90;;;;;;5075687;28;20040;-67
2022/10/25 09:19:07;;;;;;;51.20;7.13;;;14.30;99.90;;;;;;5075878;28;20024;-67
2022/10/25 09:21:47;;;;;;;53.80;8.80;;;14.40;99.90;;;;;;5059438;28;20017;-67
2022/10/25 09:24:47;;;;;;;46.00;7.03;;;14.40;99.90;;;;;;5055621;28;20032;-67
2022/10/25 09:27:17;;;;;;;51.53;9.23;;;14.40;99.90;;;;;;5070197;28;20106;-67
2022/10/25 09:29:49;;;;;;;40.08;6.28;;;14.50;99.90;;;;;;5075419;28;20025;-67
2022/10/25 09:32:28;;;;;;;53.67;8.68;;;14.60;99.90;;;;;;5073404;28;20032;-67
2022/10/25 09:34:55;;;;;;;48.58;6.03;;;14.50;99.90;;;;;;5068015;28;20112;-67
2022/10/25 09:37:29;;;;;;;33.47;5.60;;;14.40;99.90;;;;;;5055538;28;20155;-67
2022/10/25 09:39:59;;;;;;;60.63;7.22;;;14.40;99.90;;;;;;5059276;28;20055;-66
2022/10/25 09:42:31;;;;;;;46.80;7.53;;;14.40;99.90;;;;;;5059394;28;20551;-67
2022/10/25 09:45:03;;;;;;;42.72;6.32;;;14.50;99.90;;;;;;5055534;28;20024;-67
2022/10/25 09:47:51;;;;;;;41.03;5.63;;;14.60;99.90;;;;;;5043736;28;20028;-67
2022/10/25 09:50:38;;;;;;;40.58;6.18;;;14.60;99.90;;;;;;5057227;28;20029;-67
2022/10/25 09:53:13;;;;;;;43.95;6.18;;;14.60;99.90;;;;;;5055652;28;20479;-67
2022/10/25 09:55:48;;;;;;;58.17;7.68;;;14.60;99.90;;;;;;5057477;28;20543;-67
2022/10/25 09:58:45;;;;;;;28.58;5.10;;;14.60;99.90;;;;;;5055080;28;20067;-67
2022/10/25 10:01:21;;;;;;;44.13;6.22;;;14.60;99.90;;;;;;5049808;28;20043;-67
2022/10/25 10:03:47;;;;;;;39.42;5.80;;;14.60;99.90;;;;;;5074752;28;20056;-67
2022/10/25 10:06:27;;;;;;;39.28;5.57;;;14.70;99.90;;;;;;5074881;28;20067;-67
2022/10/25 10:08:58;;;;;;;39.20;6.30;;;14.60;99.90;;;;;;5057439;28;20029;-67
2022/10/25 10:11:24;;;;;;;51.13;7.30;;;14.50;99.90;;;;;;5055267;28;20070;-67
2022/10/25 10:13:55;;;;;;;33.15;6.47;;;14.40;99.90;;;;;;5046494;28;20021;-67
2022/10/25 10:16:35;;;;;;;52.55;7.60;;;14.50;99.90;;;;;;5054906;28;20036;-68
2022/10/25 10:19:22;;;;;;;44.65;5.68;;;14.50;99.90;;;;;;5054959;28;20021;-68
2022/10/25 10:21:54;;;;;;;34.63;5.03;;;14.60;99.90;;;;;;5054566;28;20029;-67
2022/10/25 10:24:27;;;;;;;45.08;6.47;;;14.50;99.90;;;;;;5054727;28;20025;-68
2022/10/25 10:27:06;;;;;;;42.80;6.28;;;14.60;99.90;;;;;;5060146;28;20111;-67
2022/10/25 10:29:35;;;;;;;56.25;8.05;;;14.60;99.90;;;;;;5063153;28;20127;-66
2022/10/25 10:32:05;;;;;;;50.70;6.20;;;14.60;99.90;;;;;;5067546;28;20368;-67
2022/10/25 10:34:35;;;;;;;50.25;7.82;;;14.60;99.90;;;;;;5059562;28;20411;-67
2022/10/25 10:37:11;;;;;;;58.22;6.18;;;14.60;99.90;;;;;;5062337;28;20027;-66
2022/10/25 10:39:55;;;;;;;48.80;8.35;;;14.60;99.90;;;;;;5068820;28;20029;-66
2022/10/25 10:42:22;;;;;;;37.05;5.93;;;14.50;99.90;;;;;;5056251;28;20053;-67
2022/10/25 10:45:16;;;;;;;57.13;6.78;;;14.40;99.90;;;;;;5064673;28;20025;-68
2022/10/25 10:48:00;;;;;;;;;;;14.50;99.90;;;;;;5058125;28;20051;-67
2022/10/25 10:50:30;;;;;;;58.38;9.23;;;14.60;99.90;;;;;;5062153;28;20379;-68
2022/10/25 10:53:01;;;;;;;60.25;7.93;;;14.90;99.90;;;;;;5059868;28;20036;-67
2022/10/25 10:55:30;;;;;;;36.47;5.93;;;15.10;99.90;;;;;;5063667;28;20025;-67
2022/10/25 10:58:01;;;;;;;47.38;7.70;;;15.00;99.90;;;;;;5062330;28;20094;-67
2022/10/25 11:00:29;;;;;;;44.58;6.53;;;15.10;99.90;;;;;;5055519;28;20025;-67
2022/10/25 11:02:54;;;;;;;48.92;7.40;;;15.20;99.90;;;;;;5062611;28;20032;-67
2022/10/25 11:05:36;;;;;;;38.30;7.22;;;15.50;99.90;;;;;;5070557;28;20621;-67
2022/10/25 11:08:16;;;;;;;51.20;5.28;;;15.60;99.90;;;;;;5053419;28;20032;-67
2022/10/25 11:10:41;;;;;;;32.55;5.00;;;15.60;99.90;;;;;;5053676;28;20025;-67
2022/10/25 11:13:19;;;;;;;42.78;5.00;;;15.50;99.90;;;;;;5053715;28;20029;-68
2022/10/25 11:16:19;;;;;;;37.78;5.28;;;15.50;99.90;;;;;;5053256;28;20032;-67
2022/10/25 11:18:59;;;;;;;37.80;5.20;;;15.60;99.90;;;;;;5067023;28;20103;-67
2022/10/25 11:21:46;;;;;;;32.42;4.38;;;15.80;99.90;;;;;;5053572;28;20025;-67
2022/10/25 11:24:27;;;;;;;32.72;4.40;;;16.00;99.90;;;;;;5053510;28;20029;-67
2022/10/25 11:27:00;;;;;;;38.63;6.30;;;16.20;99.90;;;;;;5053525;28;20357;-67
2022/10/25 11:29:53;;;;;;;33.17;5.10;;;16.20;99.90;;;;;;5052873;28;20022;-67
2022/10/25 11:32:37;;;;;;;30.10;4.72;;;16.30;99.90;;;;;;5062159;28;20483;-67
2022/10/25 11:35:31;;;;;;;46.85;5.47;;;16.30;99.90;;;;;;5059144;28;20025;-68
2022/10/25 11:38:06;;;;;;;26.15;3.75;;;16.20;99.90;;;;;;5054356;28;20029;-68
2022/10/25 11:40:39;;;;;;;41.17;4.78;;;15.90;99.90;;;;;;5053523;28;20388;-67
2022/10/25 11:43:14;;;;;;;32.88;4.57;;;15.60;99.90;;;;;;5053143;28;20017;-68
2022/10/25 11:45:44;;;;;;;29.08;3.70;;;15.70;99.90;;;;;;5053253;28;20103;-68
2022/10/25 11:48:34;;;;;;;28.27;4.13;;;15.60;99.90;;;;;;5053033;28;20029;-68
2022/10/25 11:51:18;;;;;;;18.25;3.88;;;15.50;99.90;;;;;;5055849;28;20047;-68
2022/10/25 11:54:16;;;;;;;33.58;4.65;;;15.70;99.90;;;;;;5053331;28;20036;-68
2022/10/25 11:57:05;;;;;;;21.60;3.97;;;15.80;99.90;;;;;;5053849;28;20028;-68
2022/10/25 12:00:00;;;;;;;28.67;3.55;;;16.00;99.90;;;;;;5053157;28;20159;-68
2022/10/25 12:03:02;;;;;;;29.58;3.50;;;15.90;99.90;;;;;;5065380;28;20078;-68
2022/10/25 12:05:28;;;;;;;28.70;3.47;;;15.90;99.90;;;;;;5072917;28;20104;-68
2022/10/25 12:07:59;;;;;;;24.23;3.28;;;15.90;99.90;;;;;;5060476;28;20110;-68
2022/10/25 12:10:38;;;;;;;21.90;4.10;;;16.20;99.90;;;;;;5053155;28;20033;-68
2022/10/25 12:13:13;;;;;;;29.58;4.35;;;16.20;99.90;;;;;;5061735;28;20576;-68
2022/10/25 12:15:45;;;;;;;27.55;3.83;;;16.00;99.90;;;;;;5072924;28;20475;-68
2022/10/25 12:18:34;;;;;;;23.23;3.90;;;15.70;99.90;;;;;;5072888;28;20461;-68
2022/10/25 12:21:01;;;;;;;33.30;4.53;;;15.60;99.90;;;;;;5072489;28;20391;-68
2022/10/25 12:23:30;;;;;;;24.23;4.32;;;15.50;99.90;;;;;;5065077;28;20021;-67
2022/10/25 12:26:00;;;;;;;22.67;3.75;;;15.40;99.90;;;;;;5052784;28;20021;-68
2022/10/25 12:28:41;;;;;;;22.38;3.35;;;15.40;99.90;;;;;;5057385;28;20028;-67
2022/10/25 12:31:17;;;;;;;28.33;3.78;;;15.50;99.90;;;;;;5073329;28;20094;-68
2022/10/25 12:34:11;;;;;;;32.25;5.15;;;15.50;99.90;;;;;;5071015;28;20383;-67
2022/10/25 12:37:01;;;;;;;44.50;5.28;;;15.50;99.90;;;;;;5052641;28;20079;-68
2022/10/25 12:39:37;;;;;;;36.05;5.10;;;15.40;99.90;;;;;;5053460;28;20021;-68
2022/10/25 12:42:26;;;;;;;37.05;7.68;;;15.30;99.90;;;;;;5052688;28;20061;-68
2022/10/25 12:45:10;;;;;;;35.20;5.88;;;15.20;99.90;;;;;;5052888;28;20480;-68
2022/10/25 12:48:05;;;;;;;37.92;5.88;;;15.30;99.90;;;;;;5069962;28;20036;-68
2022/10/25 12:50:49;;;;;;;40.90;5.65;;;15.30;99.90;;;;;;5070743;28;20120;-66
2022/10/25 12:53:42;;;;;;;40.83;5.88;;;15.50;99.90;;;;;;5052430;28;20083;-68
2022/10/25 12:56:35;;;;;;;31.48;4.13;;;16.00;99.90;;;;;;5054461;28;20021;-67
2022/10/25 12:59:07;;;;;;;25.70;3.83;;;16.40;99.90;;;;;;5056119;28;20404;-68